sensor_id;sensor_type;location;lat;lon;timestamp;P1;durP1;ratioP1;P2;durP2;ratioP2
34573;SDS011;20809;49.594;8.734;2022-12-07T00:01:45;11.75;;;7.68;;
34573;SDS011;20809;49.594;8.734;2022-12-07T00:04:48;14.52;;;8.20;;
34573;SDS011;20809;49.594;8.734;2022-12-07T00:07:49;12.65;;;8.15;;
34573;SDS011;20809;49.594;8.734;2022-12-07T00:10:50;13.48;;;7.95;;
34573;SDS011;20809;49.594;8.734;2022-12-07T00:13:51;16.70;;;8.73;;
34573;SDS011;20809;49.594;8.734;2022-12-07T00:16:53;13.15;;;8.38;;
34573;SDS011;20809;49.594;8.734;2022-12-07T00:19:54;14.50;;;8.75;;
34573;SDS011;20809;49.594;8.734;2022-12-07T00:22:54;14.00;;;8.18;;
34573;SDS011;20809;49.594;8.734;2022-12-07T00:25:55;12.88;;;7.80;;
34573;SDS011;20809;49.594;8.734;2022-12-07T00:28:57;11.82;;;7.78;;
34573;SDS011;20809;49.594;8.734;2022-12-07T00:32:00;11.65;;;6.88;;
34573;SDS011;20809;49.594;8.734;2022-12-07T00:35:01;15.80;;;8.57;;
34573;SDS011;20809;49.594;8.734;2022-12-07T00:38:01;12.70;;;7.72;;
34573;SDS011;20809;49.594;8.734;2022-12-07T00:41:04;13.00;;;7.30;;
34573;SDS011;20809;49.594;8.734;2022-12-07T00:44:12;14.52;;;8.00;;
34573;SDS011;20809;49.594;8.734;2022-12-07T00:47:13;14.50;;;8.38;;
34573;SDS011;20809;49.594;8.734;2022-12-07T00:50:13;12.70;;;8.25;;
34573;SDS011;20809;49.594;8.734;2022-12-07T00:53:14;14.15;;;7.65;;
34573;SDS011;20809;49.594;8.734;2022-12-07T00:59:20;13.93;;;8.63;;
34573;SDS011;20809;49.594;8.734;2022-12-07T01:02:21;15.93;;;8.15;;
34573;SDS011;20809;49.594;8.734;2022-12-07T01:05:22;19.58;;;8.13;;
34573;SDS011;20809;49.594;8.734;2022-12-07T01:08:23;12.27;;;8.00;;
34573;SDS011;20809;49.594;8.734;2022-12-07T01:11:26;13.18;;;7.70;;
34573;SDS011;20809;49.594;8.734;2022-12-07T01:14:28;10.55;;;6.57;;
34573;SDS011;20809;49.594;8.734;2022-12-07T01:17:28;13.40;;;7.45;;
34573;SDS011;20809;49.594;8.734;2022-12-07T01:20:29;16.13;;;8.43;;
34573;SDS011;20809;49.594;8.734;2022-12-07T01:23:30;14.15;;;8.27;;
34573;SDS011;20809;49.594;8.734;2022-12-07T01:26:32;14.90;;;8.05;;
34573;SDS011;20809;49.594;8.734;2022-12-07T01:29:32;12.35;;;7.60;;
34573;SDS011;20809;49.594;8.734;2022-12-07T01:32:33;12.65;;;7.55;;
34573;SDS011;20809;49.594;8.734;2022-12-07T01:35:34;9.45;;;7.28;;
34573;SDS011;20809;49.594;8.734;2022-12-07T01:38:34;10.93;;;7.25;;
34573;SDS011;20809;49.594;8.734;2022-12-07T01:41:37;16.05;;;7.40;;
34573;SDS011;20809;49.594;8.734;2022-12-07T01:48:20;12.30;;;7.38;;
34573;SDS011;20809;49.594;8.734;2022-12-07T01:51:26;11.70;;;7.32;;
34573;SDS011;20809;49.594;8.734;2022-12-07T01:54:28;14.82;;;7.15;;
34573;SDS011;20809;49.594;8.734;2022-12-07T02:09:34;16.25;;;9.20;;
34573;SDS011;20809;49.594;8.734;2022-12-07T02:12:34;15.00;;;8.38;;
34573;SDS011;20809;49.594;8.734;2022-12-07T02:15:38;15.40;;;7.80;;
34573;SDS011;20809;49.594;8.734;2022-12-07T02:29:26;12.68;;;7.45;;
34573;SDS011;20809;49.594;8.734;2022-12-07T02:32:44;15.95;;;7.18;;
34573;SDS011;20809;49.594;8.734;2022-12-07T02:36:05;12.70;;;7.87;;
34573;SDS011;20809;49.594;8.734;2022-12-07T02:39:24;19.80;;;8.30;;
34573;SDS011;20809;49.594;8.734;2022-12-07T02:42:38;13.93;;;7.80;;
34573;SDS011;20809;49.594;8.734;2022-12-07T02:45:42;14.27;;;7.75;;
34573;SDS011;20809;49.594;8.734;2022-12-07T02:48:45;12.02;;;7.70;;
34573;SDS011;20809;49.594;8.734;2022-12-07T02:51:47;15.27;;;8.38;;
34573;SDS011;20809;49.594;8.734;2022-12-07T02:54:48;13.40;;;8.35;;
34573;SDS011;20809;49.594;8.734;2022-12-07T02:58:52;16.40;;;8.32;;
34573;SDS011;20809;49.594;8.734;2022-12-07T03:04:45;15.50;;;9.40;;
34573;SDS011;20809;49.594;8.734;2022-12-07T03:11:04;15.85;;;8.75;;
34573;SDS011;20809;49.594;8.734;2022-12-07T03:17:48;14.00;;;8.70;;
34573;SDS011;20809;49.594;8.734;2022-12-07T03:20:50;14.38;;;8.00;;
34573;SDS011;20809;49.594;8.734;2022-12-07T03:23:55;16.73;;;8.38;;
34573;SDS011;20809;49.594;8.734;2022-12-07T03:27:00;14.40;;;8.13;;
34573;SDS011;20809;49.594;8.734;2022-12-07T03:30:13;14.13;;;8.00;;
34573;SDS011;20809;49.594;8.734;2022-12-07T03:36:23;15.65;;;7.35;;
34573;SDS011;20809;49.594;8.734;2022-12-07T03:39:33;12.38;;;7.38;;
34573;SDS011;20809;49.594;8.734;2022-12-07T03:42:40;13.02;;;8.73;;
34573;SDS011;20809;49.594;8.734;2022-12-07T03:45:42;15.55;;;7.18;;
34573;SDS011;20809;49.594;8.734;2022-12-07T03:48:54;13.77;;;8.25;;
34573;SDS011;20809;49.594;8.734;2022-12-07T03:55:20;12.35;;;8.00;;
34573;SDS011;20809;49.594;8.734;2022-12-07T03:58:43;14.07;;;8.48;;
34573;SDS011;20809;49.594;8.734;2022-12-07T04:01:44;13.85;;;7.82;;
34573;SDS011;20809;49.594;8.734;2022-12-07T04:04:52;13.25;;;7.93;;
34573;SDS011;20809;49.594;8.734;2022-12-07T04:07:53;12.98;;;7.38;;
34573;SDS011;20809;49.594;8.734;2022-12-07T04:10:53;13.02;;;7.68;;
34573;SDS011;20809;49.594;8.734;2022-12-07T04:13:54;12.48;;;6.82;;
34573;SDS011;20809;49.594;8.734;2022-12-07T04:17:13;14.32;;;7.18;;
34573;SDS011;20809;49.594;8.734;2022-12-07T04:20:14;15.85;;;7.80;;
34573;SDS011;20809;49.594;8.734;2022-12-07T04:23:15;11.20;;;6.68;;
34573;SDS011;20809;49.594;8.734;2022-12-07T04:26:16;13.57;;;7.93;;
34573;SDS011;20809;49.594;8.734;2022-12-07T04:29:17;12.90;;;7.60;;
34573;SDS011;20809;49.594;8.734;2022-12-07T04:32:18;11.68;;;7.40;;
34573;SDS011;20809;49.594;8.734;2022-12-07T04:35:19;13.23;;;7.05;;
34573;SDS011;20809;49.594;8.734;2022-12-07T04:38:20;13.35;;;7.25;;
34573;SDS011;20809;49.594;8.734;2022-12-07T04:41:21;14.00;;;8.00;;
34573;SDS011;20809;49.594;8.734;2022-12-07T04:44:27;12.18;;;7.57;;
34573;SDS011;20809;49.594;8.734;2022-12-07T04:47:29;13.13;;;8.30;;
34573;SDS011;20809;49.594;8.734;2022-12-07T04:50:29;15.95;;;9.00;;
34573;SDS011;20809;49.594;8.734;2022-12-07T04:53:30;12.73;;;7.63;;
34573;SDS011;20809;49.594;8.734;2022-12-07T04:56:30;13.43;;;7.38;;
34573;SDS011;20809;49.594;8.734;2022-12-07T04:59:31;24.63;;;13.63;;
34573;SDS011;20809;49.594;8.734;2022-12-07T05:02:32;20.17;;;11.45;;
34573;SDS011;20809;49.594;8.734;2022-12-07T05:05:33;17.20;;;9.98;;
34573;SDS011;20809;49.594;8.734;2022-12-07T05:08:34;14.65;;;7.43;;
34573;SDS011;20809;49.594;8.734;2022-12-07T05:11:34;11.32;;;7.95;;
34573;SDS011;20809;49.594;8.734;2022-12-07T05:14:38;14.85;;;8.75;;
34573;SDS011;20809;49.594;8.734;2022-12-07T05:17:38;15.30;;;9.07;;
34573;SDS011;20809;49.594;8.734;2022-12-07T05:20:39;14.93;;;8.75;;
34573;SDS011;20809;49.594;8.734;2022-12-07T05:23:41;16.63;;;8.48;;
34573;SDS011;20809;49.594;8.734;2022-12-07T05:26:42;12.55;;;7.82;;
34573;SDS011;20809;49.594;8.734;2022-12-07T05:32:44;12.00;;;7.03;;
34573;SDS011;20809;49.594;8.734;2022-12-07T05:35:44;12.57;;;7.35;;
34573;SDS011;20809;49.594;8.734;2022-12-07T05:38:45;11.43;;;6.95;;
34573;SDS011;20809;49.594;8.734;2022-12-07T05:41:46;12.45;;;6.65;;
34573;SDS011;20809;49.594;8.734;2022-12-07T05:45:05;13.95;;;7.38;;
34573;SDS011;20809;49.594;8.734;2022-12-07T05:51:07;12.33;;;6.70;;
34573;SDS011;20809;49.594;8.734;2022-12-07T05:54:08;11.77;;;6.75;;
34573;SDS011;20809;49.594;8.734;2022-12-07T05:57:09;13.80;;;7.25;;
34573;SDS011;20809;49.594;8.734;2022-12-07T06:00:10;11.63;;;7.22;;
34573;SDS011;20809;49.594;8.734;2022-12-07T06:03:11;15.32;;;7.25;;
34573;SDS011;20809;49.594;8.734;2022-12-07T06:06:12;13.13;;;6.97;;
34573;SDS011;20809;49.594;8.734;2022-12-07T06:09:12;8.57;;;6.03;;
34573;SDS011;20809;49.594;8.734;2022-12-07T06:12:13;10.00;;;6.30;;
34573;SDS011;20809;49.594;8.734;2022-12-07T06:15:33;13.10;;;7.30;;
34573;SDS011;20809;49.594;8.734;2022-12-07T06:18:36;11.15;;;5.60;;
34573;SDS011;20809;49.594;8.734;2022-12-07T06:21:36;13.93;;;5.72;;
34573;SDS011;20809;49.594;8.734;2022-12-07T06:24:38;9.32;;;5.95;;
34573;SDS011;20809;49.594;8.734;2022-12-07T06:30:39;11.23;;;6.10;;
34573;SDS011;20809;49.594;8.734;2022-12-07T06:33:40;9.00;;;5.88;;
34573;SDS011;20809;49.594;8.734;2022-12-07T06:36:41;9.07;;;5.60;;
34573;SDS011;20809;49.594;8.734;2022-12-07T06:39:42;10.27;;;6.10;;
34573;SDS011;20809;49.594;8.734;2022-12-07T06:42:43;8.27;;;5.32;;
34573;SDS011;20809;49.594;8.734;2022-12-07T06:45:43;8.43;;;5.60;;
34573;SDS011;20809;49.594;8.734;2022-12-07T06:48:44;8.95;;;6.20;;
34573;SDS011;20809;49.594;8.734;2022-12-07T06:51:45;8.32;;;5.75;;
34573;SDS011;20809;49.594;8.734;2022-12-07T06:54:45;10.13;;;6.25;;
34573;SDS011;20809;49.594;8.734;2022-12-07T06:57:46;7.15;;;5.57;;
34573;SDS011;20809;49.594;8.734;2022-12-07T07:00:47;9.20;;;6.10;;
34573;SDS011;20809;49.594;8.734;2022-12-07T07:03:49;9.45;;;6.38;;
34573;SDS011;20809;49.594;8.734;2022-12-07T07:06:50;11.95;;;6.75;;
34573;SDS011;20809;49.594;8.734;2022-12-07T07:09:51;10.15;;;6.40;;
34573;SDS011;20809;49.594;8.734;2022-12-07T07:12:52;13.00;;;6.35;;
34573;SDS011;20809;49.594;8.734;2022-12-07T07:15:53;9.55;;;6.30;;
34573;SDS011;20809;49.594;8.734;2022-12-07T07:21:54;9.77;;;5.97;;
34573;SDS011;20809;49.594;8.734;2022-12-07T07:24:55;10.73;;;6.57;;
34573;SDS011;20809;49.594;8.734;2022-12-07T07:27:56;12.85;;;6.68;;
34573;SDS011;20809;49.594;8.734;2022-12-07T07:30:56;12.13;;;7.65;;
34573;SDS011;20809;49.594;8.734;2022-12-07T07:33:57;11.73;;;6.60;;
34573;SDS011;20809;49.594;8.734;2022-12-07T07:36:58;11.75;;;7.30;;
34573;SDS011;20809;49.594;8.734;2022-12-07T07:39:58;11.15;;;6.38;;
34573;SDS011;20809;49.594;8.734;2022-12-07T07:42:59;12.10;;;7.70;;
34573;SDS011;20809;49.594;8.734;2022-12-07T07:45:59;12.50;;;6.78;;
34573;SDS011;20809;49.594;8.734;2022-12-07T07:49:00;11.73;;;7.20;;
34573;SDS011;20809;49.594;8.734;2022-12-07T07:52:01;9.98;;;7.25;;
34573;SDS011;20809;49.594;8.734;2022-12-07T07:55:02;10.55;;;7.22;;
34573;SDS011;20809;49.594;8.734;2022-12-07T07:58:03;10.60;;;7.40;;
34573;SDS011;20809;49.594;8.734;2022-12-07T08:01:07;11.02;;;7.13;;
34573;SDS011;20809;49.594;8.734;2022-12-07T08:04:08;11.20;;;7.25;;
34573;SDS011;20809;49.594;8.734;2022-12-07T08:07:09;13.27;;;7.45;;
34573;SDS011;20809;49.594;8.734;2022-12-07T08:13:14;10.63;;;6.55;;
34573;SDS011;20809;49.594;8.734;2022-12-07T08:16:17;12.13;;;7.53;;
34573;SDS011;20809;49.594;8.734;2022-12-07T08:19:18;15.90;;;7.95;;
34573;SDS011;20809;49.594;8.734;2022-12-07T08:22:19;13.70;;;8.07;;
34573;SDS011;20809;49.594;8.734;2022-12-07T08:25:20;11.88;;;7.28;;
34573;SDS011;20809;49.594;8.734;2022-12-07T08:28:22;11.57;;;7.70;;
34573;SDS011;20809;49.594;8.734;2022-12-07T08:31:23;12.93;;;8.30;;
34573;SDS011;20809;49.594;8.734;2022-12-07T08:34:24;16.65;;;8.63;;
34573;SDS011;20809;49.594;8.734;2022-12-07T08:37:25;13.95;;;8.85;;
34573;SDS011;20809;49.594;8.734;2022-12-07T08:40:25;14.55;;;8.77;;
34573;SDS011;20809;49.594;8.734;2022-12-07T08:43:26;11.82;;;7.82;;
34573;SDS011;20809;49.594;8.734;2022-12-07T08:46:37;13.70;;;7.80;;
34573;SDS011;20809;49.594;8.734;2022-12-07T08:49:47;13.97;;;8.97;;
34573;SDS011;20809;49.594;8.734;2022-12-07T08:52:52;13.07;;;8.40;;
34573;SDS011;20809;49.594;8.734;2022-12-07T08:55:54;14.05;;;8.35;;
34573;SDS011;20809;49.594;8.734;2022-12-07T08:58:56;12.30;;;7.78;;
34573;SDS011;20809;49.594;8.734;2022-12-07T09:01:58;15.10;;;8.82;;
34573;SDS011;20809;49.594;8.734;2022-12-07T09:04:58;13.93;;;8.80;;
34573;SDS011;20809;49.594;8.734;2022-12-07T09:08:00;11.02;;;8.65;;
34573;SDS011;20809;49.594;8.734;2022-12-07T09:11:02;11.07;;;7.45;;
34573;SDS011;20809;49.594;8.734;2022-12-07T09:14:03;11.73;;;7.30;;
34573;SDS011;20809;49.594;8.734;2022-12-07T09:17:10;13.23;;;8.38;;
34573;SDS011;20809;49.594;8.734;2022-12-07T09:20:12;12.63;;;8.30;;
34573;SDS011;20809;49.594;8.734;2022-12-07T09:23:13;15.40;;;9.00;;
34573;SDS011;20809;49.594;8.734;2022-12-07T09:26:13;13.00;;;8.15;;
34573;SDS011;20809;49.594;8.734;2022-12-07T09:29:14;14.23;;;8.40;;
34573;SDS011;20809;49.594;8.734;2022-12-07T09:32:15;13.98;;;7.82;;
34573;SDS011;20809;49.594;8.734;2022-12-07T09:35:16;11.38;;;7.32;;
34573;SDS011;20809;49.594;8.734;2022-12-07T09:38:16;15.73;;;10.18;;
34573;SDS011;20809;49.594;8.734;2022-12-07T09:41:19;12.20;;;7.88;;
34573;SDS011;20809;49.594;8.734;2022-12-07T09:44:23;13.52;;;7.50;;
34573;SDS011;20809;49.594;8.734;2022-12-07T09:47:26;14.05;;;8.32;;
34573;SDS011;20809;49.594;8.734;2022-12-07T09:50:29;12.25;;;7.90;;
34573;SDS011;20809;49.594;8.734;2022-12-07T09:53:32;16.10;;;9.00;;
34573;SDS011;20809;49.594;8.734;2022-12-07T09:56:35;12.45;;;7.75;;
34573;SDS011;20809;49.594;8.734;2022-12-07T09:59:36;10.55;;;7.57;;
34573;SDS011;20809;49.594;8.734;2022-12-07T10:02:38;13.73;;;8.85;;
34573;SDS011;20809;49.594;8.734;2022-12-07T10:05:45;11.55;;;7.63;;
34573;SDS011;20809;49.594;8.734;2022-12-07T10:08:49;13.32;;;8.38;;
34573;SDS011;20809;49.594;8.734;2022-12-07T10:12:03;14.45;;;9.13;;
34573;SDS011;20809;49.594;8.734;2022-12-07T10:15:09;13.23;;;8.38;;
34573;SDS011;20809;49.594;8.734;2022-12-07T10:21:28;14.10;;;8.40;;
34573;SDS011;20809;49.594;8.734;2022-12-07T10:24:29;13.02;;;8.02;;
34573;SDS011;20809;49.594;8.734;2022-12-07T10:27:31;14.52;;;8.57;;
34573;SDS011;20809;49.594;8.734;2022-12-07T10:30:32;13.30;;;8.73;;
34573;SDS011;20809;49.594;8.734;2022-12-07T10:36:53;14.52;;;8.57;;
34573;SDS011;20809;49.594;8.734;2022-12-07T10:40:23;12.38;;;8.68;;
34573;SDS011;20809;49.594;8.734;2022-12-07T10:43:27;11.93;;;7.80;;
34573;SDS011;20809;49.594;8.734;2022-12-07T11:06:06;16.10;;;8.85;;
34573;SDS011;20809;49.594;8.734;2022-12-07T11:16:15;11.98;;;7.55;;
34573;SDS011;20809;49.594;8.734;2022-12-07T11:19:43;11.10;;;7.97;;
34573;SDS011;20809;49.594;8.734;2022-12-07T11:32:44;11.20;;;7.78;;
34573;SDS011;20809;49.594;8.734;2022-12-07T11:39:28;16.23;;;8.95;;
34573;SDS011;20809;49.594;8.734;2022-12-07T11:42:36;17.27;;;8.35;;
34573;SDS011;20809;49.594;8.734;2022-12-07T11:45:41;12.73;;;8.35;;
34573;SDS011;20809;49.594;8.734;2022-12-07T11:48:50;14.13;;;8.88;;
34573;SDS011;20809;49.594;8.734;2022-12-07T11:52:04;17.08;;;9.88;;
34573;SDS011;20809;49.594;8.734;2022-12-07T11:55:22;13.40;;;8.73;;
34573;SDS011;20809;49.594;8.734;2022-12-07T12:01:59;10.15;;;7.25;;
34573;SDS011;20809;49.594;8.734;2022-12-07T12:05:13;13.10;;;7.95;;
34573;SDS011;20809;49.594;8.734;2022-12-07T12:08:23;10.95;;;7.82;;
34573;SDS011;20809;49.594;8.734;2022-12-07T12:22:12;17.40;;;8.90;;
34573;SDS011;20809;49.594;8.734;2022-12-07T12:25:21;15.45;;;7.72;;
34573;SDS011;20809;49.594;8.734;2022-12-07T12:28:34;11.98;;;8.15;;
34573;SDS011;20809;49.594;8.734;2022-12-07T12:35:29;12.35;;;7.80;;
34573;SDS011;20809;49.594;8.734;2022-12-07T12:38:47;12.95;;;7.75;;
34573;SDS011;20809;49.594;8.734;2022-12-07T12:41:51;15.98;;;8.00;;
34573;SDS011;20809;49.594;8.734;2022-12-07T12:45:04;11.63;;;7.75;;
34573;SDS011;20809;49.594;8.734;2022-12-07T12:48:29;11.35;;;7.25;;
34573;SDS011;20809;49.594;8.734;2022-12-07T12:51:37;11.02;;;7.88;;
34573;SDS011;20809;49.594;8.734;2022-12-07T12:54:57;13.85;;;7.88;;
34573;SDS011;20809;49.594;8.734;2022-12-07T13:04:28;17.45;;;8.35;;
34573;SDS011;20809;49.594;8.734;2022-12-07T13:10:50;15.50;;;8.13;;
34573;SDS011;20809;49.594;8.734;2022-12-07T13:13:51;14.18;;;7.28;;
34573;SDS011;20809;49.594;8.734;2022-12-07T13:16:52;12.63;;;6.97;;
34573;SDS011;20809;49.594;8.734;2022-12-07T13:19:53;11.65;;;7.32;;
34573;SDS011;20809;49.594;8.734;2022-12-07T13:22:54;13.63;;;8.23;;
34573;SDS011;20809;49.594;8.734;2022-12-07T13:32:17;11.73;;;7.47;;
34573;SDS011;20809;49.594;8.734;2022-12-07T13:35:31;10.90;;;7.18;;
34573;SDS011;20809;49.594;8.734;2022-12-07T13:38:40;11.27;;;7.13;;
34573;SDS011;20809;49.594;8.734;2022-12-07T13:41:53;14.13;;;8.07;;
34573;SDS011;20809;49.594;8.734;2022-12-07T13:44:57;9.68;;;6.47;;
34573;SDS011;20809;49.594;8.734;2022-12-07T13:48:00;11.57;;;7.20;;
34573;SDS011;20809;49.594;8.734;2022-12-07T13:51:02;10.38;;;6.53;;
34573;SDS011;20809;49.594;8.734;2022-12-07T13:54:09;9.13;;;6.20;;
34573;SDS011;20809;49.594;8.734;2022-12-07T13:57:11;9.48;;;5.90;;
34573;SDS011;20809;49.594;8.734;2022-12-07T14:00:22;8.95;;;5.70;;
34573;SDS011;20809;49.594;8.734;2022-12-07T14:03:30;9.90;;;6.28;;
34573;SDS011;20809;49.594;8.734;2022-12-07T14:06:36;10.60;;;6.00;;
34573;SDS011;20809;49.594;8.734;2022-12-07T14:09:54;10.40;;;6.30;;
34573;SDS011;20809;49.594;8.734;2022-12-07T14:12:56;10.85;;;6.07;;
34573;SDS011;20809;49.594;8.734;2022-12-07T14:15:58;14.88;;;6.43;;
34573;SDS011;20809;49.594;8.734;2022-12-07T14:22:07;14.40;;;7.10;;
34573;SDS011;20809;49.594;8.734;2022-12-07T14:25:14;11.65;;;7.05;;
34573;SDS011;20809;49.594;8.734;2022-12-07T14:31:31;10.40;;;6.95;;
34573;SDS011;20809;49.594;8.734;2022-12-07T14:34:32;13.50;;;6.90;;
34573;SDS011;20809;49.594;8.734;2022-12-07T14:37:33;10.18;;;7.07;;
34573;SDS011;20809;49.594;8.734;2022-12-07T14:40:33;14.52;;;8.43;;
34573;SDS011;20809;49.594;8.734;2022-12-07T14:43:34;10.00;;;6.85;;
34573;SDS011;20809;49.594;8.734;2022-12-07T14:46:35;11.07;;;6.82;;
34573;SDS011;20809;49.594;8.734;2022-12-07T14:49:36;9.93;;;6.70;;
34573;SDS011;20809;49.594;8.734;2022-12-07T14:52:36;11.70;;;6.93;;
34573;SDS011;20809;49.594;8.734;2022-12-07T14:55:38;11.63;;;6.78;;
34573;SDS011;20809;49.594;8.734;2022-12-07T14:58:39;12.25;;;7.38;;
34573;SDS011;20809;49.594;8.734;2022-12-07T15:04:41;15.33;;;7.70;;
34573;SDS011;20809;49.594;8.734;2022-12-07T15:07:41;9.40;;;6.45;;
34573;SDS011;20809;49.594;8.734;2022-12-07T15:10:43;12.93;;;6.40;;
34573;SDS011;20809;49.594;8.734;2022-12-07T15:13:44;10.07;;;6.18;;
34573;SDS011;20809;49.594;8.734;2022-12-07T15:17:03;9.80;;;6.53;;
34573;SDS011;20809;49.594;8.734;2022-12-07T15:20:04;9.02;;;6.82;;
34573;SDS011;20809;49.594;8.734;2022-12-07T15:23:05;9.82;;;5.40;;
34573;SDS011;20809;49.594;8.734;2022-12-07T15:26:06;9.70;;;6.72;;
34573;SDS011;20809;49.594;8.734;2022-12-07T15:29:08;9.65;;;6.53;;
34573;SDS011;20809;49.594;8.734;2022-12-07T15:32:09;10.43;;;6.30;;
34573;SDS011;20809;49.594;8.734;2022-12-07T15:35:10;11.38;;;6.15;;
34573;SDS011;20809;49.594;8.734;2022-12-07T15:38:11;11.40;;;7.38;;
34573;SDS011;20809;49.594;8.734;2022-12-07T15:41:11;9.63;;;5.10;;
34573;SDS011;20809;49.594;8.734;2022-12-07T15:44:12;11.75;;;6.00;;
34573;SDS011;20809;49.594;8.734;2022-12-07T15:47:42;6.97;;;4.85;;
34573;SDS011;20809;49.594;8.734;2022-12-07T15:50:44;10.15;;;5.40;;
34573;SDS011;20809;49.594;8.734;2022-12-07T15:53:45;11.50;;;6.22;;
34573;SDS011;20809;49.594;8.734;2022-12-07T15:56:45;11.57;;;6.07;;
34573;SDS011;20809;49.594;8.734;2022-12-07T15:59:46;19.50;;;9.68;;
34573;SDS011;20809;49.594;8.734;2022-12-07T16:02:47;11.75;;;7.07;;
34573;SDS011;20809;49.594;8.734;2022-12-07T16:05:50;9.38;;;6.00;;
34573;SDS011;20809;49.594;8.734;2022-12-07T16:08:53;9.35;;;6.18;;
34573;SDS011;20809;49.594;8.734;2022-12-07T16:11:54;11.80;;;6.50;;
34573;SDS011;20809;49.594;8.734;2022-12-07T16:14:55;10.35;;;6.07;;
34573;SDS011;20809;49.594;8.734;2022-12-07T16:17:55;12.93;;;6.40;;
34573;SDS011;20809;49.594;8.734;2022-12-07T16:20:56;8.73;;;5.82;;
34573;SDS011;20809;49.594;8.734;2022-12-07T16:23:57;7.95;;;6.15;;
34573;SDS011;20809;49.594;8.734;2022-12-07T16:26:59;12.05;;;5.95;;
34573;SDS011;20809;49.594;8.734;2022-12-07T16:29:59;10.63;;;6.43;;
34573;SDS011;20809;49.594;8.734;2022-12-07T16:33:00;9.40;;;5.82;;
34573;SDS011;20809;49.594;8.734;2022-12-07T16:39:03;8.52;;;5.35;;
34573;SDS011;20809;49.594;8.734;2022-12-07T16:42:04;12.57;;;5.55;;
34573;SDS011;20809;49.594;8.734;2022-12-07T16:45:05;9.73;;;6.85;;
34573;SDS011;20809;49.594;8.734;2022-12-07T16:48:06;9.55;;;6.75;;
34573;SDS011;20809;49.594;8.734;2022-12-07T16:51:08;10.02;;;6.22;;
34573;SDS011;20809;49.594;8.734;2022-12-07T16:54:11;7.88;;;5.25;;
34573;SDS011;20809;49.594;8.734;2022-12-07T16:57:12;8.93;;;4.85;;
34573;SDS011;20809;49.594;8.734;2022-12-07T17:00:13;7.80;;;5.18;;
34573;SDS011;20809;49.594;8.734;2022-12-07T17:03:14;8.55;;;5.38;;
34573;SDS011;20809;49.594;8.734;2022-12-07T17:06:18;9.27;;;5.38;;
34573;SDS011;20809;49.594;8.734;2022-12-07T17:09:20;11.23;;;6.10;;
34573;SDS011;20809;49.594;8.734;2022-12-07T17:12:21;6.82;;;4.60;;
34573;SDS011;20809;49.594;8.734;2022-12-07T17:15:21;10.27;;;5.43;;
34573;SDS011;20809;49.594;8.734;2022-12-07T17:18:22;10.60;;;5.18;;
34573;SDS011;20809;49.594;8.734;2022-12-07T17:21:23;7.20;;;5.03;;
34573;SDS011;20809;49.594;8.734;2022-12-07T17:24:24;8.77;;;5.63;;
34573;SDS011;20809;49.594;8.734;2022-12-07T17:27:25;8.85;;;5.70;;
34573;SDS011;20809;49.594;8.734;2022-12-07T17:30:25;9.55;;;6.15;;
34573;SDS011;20809;49.594;8.734;2022-12-07T17:33:26;9.90;;;5.50;;
34573;SDS011;20809;49.594;8.734;2022-12-07T17:36:28;7.45;;;4.70;;
34573;SDS011;20809;49.594;8.734;2022-12-07T17:39:30;9.98;;;5.80;;
34573;SDS011;20809;49.594;8.734;2022-12-07T17:42:31;9.25;;;5.50;;
34573;SDS011;20809;49.594;8.734;2022-12-07T17:45:39;9.10;;;5.35;;
34573;SDS011;20809;49.594;8.734;2022-12-07T17:48:40;10.93;;;6.05;;
34573;SDS011;20809;49.594;8.734;2022-12-07T17:51:41;7.53;;;5.22;;
34573;SDS011;20809;49.594;8.734;2022-12-07T17:55:01;9.02;;;5.55;;
34573;SDS011;20809;49.594;8.734;2022-12-07T17:58:01;8.82;;;6.03;;
34573;SDS011;20809;49.594;8.734;2022-12-07T18:01:07;8.30;;;5.22;;
34573;SDS011;20809;49.594;8.734;2022-12-07T18:04:08;7.93;;;6.00;;
34573;SDS011;20809;49.594;8.734;2022-12-07T18:07:09;10.25;;;5.90;;
34573;SDS011;20809;49.594;8.734;2022-12-07T18:10:10;11.43;;;6.80;;
34573;SDS011;20809;49.594;8.734;2022-12-07T18:13:11;8.98;;;6.70;;
34573;SDS011;20809;49.594;8.734;2022-12-07T18:16:31;9.45;;;5.80;;
34573;SDS011;20809;49.594;8.734;2022-12-07T18:19:34;11.07;;;6.22;;
34573;SDS011;20809;49.594;8.734;2022-12-07T18:22:36;8.98;;;6.28;;
34573;SDS011;20809;49.594;8.734;2022-12-07T18:25:38;11.35;;;6.75;;
34573;SDS011;20809;49.594;8.734;2022-12-07T18:28:42;13.98;;;6.40;;
34573;SDS011;20809;49.594;8.734;2022-12-07T18:31:44;10.77;;;7.05;;
34573;SDS011;20809;49.594;8.734;2022-12-07T18:34:46;10.38;;;6.50;;
34573;SDS011;20809;49.594;8.734;2022-12-07T18:37:47;11.82;;;6.90;;
34573;SDS011;20809;49.594;8.734;2022-12-07T18:40:47;13.15;;;7.93;;
34573;SDS011;20809;49.594;8.734;2022-12-07T18:43:48;11.40;;;6.72;;
34573;SDS011;20809;49.594;8.734;2022-12-07T18:46:49;11.60;;;7.45;;
34573;SDS011;20809;49.594;8.734;2022-12-07T18:49:49;13.52;;;7.95;;
34573;SDS011;20809;49.594;8.734;2022-12-07T18:52:50;11.13;;;7.45;;
34573;SDS011;20809;49.594;8.734;2022-12-07T18:55:51;13.07;;;8.40;;
34573;SDS011;20809;49.594;8.734;2022-12-07T18:59:04;13.82;;;8.02;;
34573;SDS011;20809;49.594;8.734;2022-12-07T19:02:23;12.98;;;8.45;;
34573;SDS011;20809;49.594;8.734;2022-12-07T19:05:25;15.02;;;9.13;;
34573;SDS011;20809;49.594;8.734;2022-12-07T19:08:26;15.45;;;8.80;;
34573;SDS011;20809;49.594;8.734;2022-12-07T19:11:27;17.30;;;10.80;;
34573;SDS011;20809;49.594;8.734;2022-12-07T19:14:48;13.40;;;9.15;;
34573;SDS011;20809;49.594;8.734;2022-12-07T19:17:48;13.90;;;9.73;;
34573;SDS011;20809;49.594;8.734;2022-12-07T19:20:49;15.82;;;8.80;;
34573;SDS011;20809;49.594;8.734;2022-12-07T19:23:52;17.42;;;10.63;;
34573;SDS011;20809;49.594;8.734;2022-12-07T19:29:54;17.58;;;8.73;;
34573;SDS011;20809;49.594;8.734;2022-12-07T19:32:55;14.50;;;8.90;;
34573;SDS011;20809;49.594;8.734;2022-12-07T19:35:56;13.93;;;8.55;;
34573;SDS011;20809;49.594;8.734;2022-12-07T19:38:57;14.50;;;8.90;;
34573;SDS011;20809;49.594;8.734;2022-12-07T19:41:58;13.98;;;8.40;;
34573;SDS011;20809;49.594;8.734;2022-12-07T19:44:58;14.38;;;9.30;;
34573;SDS011;20809;49.594;8.734;2022-12-07T19:47:59;14.48;;;8.50;;
34573;SDS011;20809;49.594;8.734;2022-12-07T19:51:03;16.10;;;8.48;;
34573;SDS011;20809;49.594;8.734;2022-12-07T19:54:04;14.05;;;8.93;;
34573;SDS011;20809;49.594;8.734;2022-12-07T19:57:05;14.48;;;9.63;;
34573;SDS011;20809;49.594;8.734;2022-12-07T20:00:07;12.38;;;8.05;;
34573;SDS011;20809;49.594;8.734;2022-12-07T20:06:10;15.57;;;8.20;;
34573;SDS011;20809;49.594;8.734;2022-12-07T20:09:15;14.63;;;9.00;;
34573;SDS011;20809;49.594;8.734;2022-12-07T20:12:16;14.73;;;10.18;;
34573;SDS011;20809;49.594;8.734;2022-12-07T20:15:36;15.50;;;8.65;;
34573;SDS011;20809;49.594;8.734;2022-12-07T20:18:37;18.60;;;10.48;;
34573;SDS011;20809;49.594;8.734;2022-12-07T20:21:38;17.60;;;9.73;;
34573;SDS011;20809;49.594;8.734;2022-12-07T20:24:39;18.08;;;12.30;;
34573;SDS011;20809;49.594;8.734;2022-12-07T20:27:40;18.45;;;11.00;;
34573;SDS011;20809;49.594;8.734;2022-12-07T20:30:47;15.85;;;9.88;;
34573;SDS011;20809;49.594;8.734;2022-12-07T20:33:51;17.30;;;10.15;;
34573;SDS011;20809;49.594;8.734;2022-12-07T20:36:52;19.17;;;10.50;;
34573;SDS011;20809;49.594;8.734;2022-12-07T20:39:53;14.73;;;10.35;;
34573;SDS011;20809;49.594;8.734;2022-12-07T20:42:54;13.80;;;8.95;;
34573;SDS011;20809;49.594;8.734;2022-12-07T20:45:55;16.08;;;9.18;;
34573;SDS011;20809;49.594;8.734;2022-12-07T20:48:56;18.75;;;11.15;;
34573;SDS011;20809;49.594;8.734;2022-12-07T20:51:59;14.43;;;9.55;;